createdAt,value
2023-02-11T00:01:23.184Z,100795.88
2023-02-11T00:03:51.152Z,100794.03
2023-02-11T00:06:20.548Z,100805.66
2023-02-11T00:08:48.341Z,100801.13
2023-02-11T00:11:17.572Z,100797.38
2023-02-11T00:13:46.582Z,100806.56
2023-02-11T00:16:16.461Z,100800.25
2023-02-11T00:18:47.360Z,100797.00
2023-02-11T00:21:17.262Z,100794.69
2023-02-11T00:23:47.486Z,100793.22
2023-02-11T00:26:16.795Z,100788.53
2023-02-11T00:28:45.910Z,100792.22
2023-02-11T00:31:14.756Z,100798.91
2023-02-11T00:33:43.423Z,100795.63
2023-02-11T00:36:15.390Z,100801.31
2023-02-11T00:38:48.945Z,100795.25
2023-02-11T00:41:17.338Z,100796.91
2023-02-11T00:43:45.626Z,100799.28
2023-02-11T00:46:14.176Z,100795.81
2023-02-11T00:48:42.034Z,100796.72
2023-02-11T00:51:10.235Z,100798.28
2023-02-11T00:53:38.065Z,100784.84
2023-02-11T00:56:07.831Z,100777.00
2023-02-11T00:58:36.284Z,100772.72
2023-02-11T01:01:04.408Z,100767.88
2023-02-11T01:03:32.777Z,100770.88
2023-02-11T01:06:00.595Z,100777.31
2023-02-11T01:08:28.514Z,100769.53
2023-02-11T01:10:59.095Z,100756.53
2023-02-11T01:13:29.267Z,100755.78
2023-02-11T01:15:57.235Z,100749.88
2023-02-11T01:18:25.645Z,100755.78
2023-02-11T01:20:53.842Z,100756.88
2023-02-11T01:23:22.148Z,100752.03
2023-02-11T01:25:51.454Z,100747.66
2023-02-11T01:28:20.699Z,100757.25
2023-02-11T01:30:50.200Z,100746.97
2023-02-11T01:33:18.211Z,100744.00
2023-02-11T01:35:46.528Z,100747.69
2023-02-11T01:38:17.414Z,100754.72
2023-02-11T01:40:50.379Z,100746.66
2023-02-11T01:43:18.385Z,100755.25
2023-02-11T01:46:01.656Z,100759.88
2023-02-11T01:48:33.466Z,100750.66
2023-02-11T01:51:05.823Z,100752.41
2023-02-11T01:53:52.814Z,100759.66
2023-02-11T01:56:39.571Z,100748.69
2023-02-11T01:59:13.576Z,100744.13
2023-02-11T02:01:44.909Z,100742.31
2023-02-11T02:04:13.565Z,100734.16
2023-02-11T02:06:50.122Z,100730.13
2023-02-11T02:09:23.162Z,100725.72
2023-02-11T02:11:51.799Z,100721.59
2023-02-11T02:14:20.342Z,100731.44
2023-02-11T02:16:49.560Z,100729.41
2023-02-11T02:20:05.250Z,100737.59
2023-02-11T02:23:12.824Z,100741.31
2023-02-11T02:26:11.574Z,100731.53
2023-02-11T02:29:06.978Z,100728.72
2023-02-11T02:31:51.109Z,100718.91
2023-02-11T02:34:29.243Z,100713.19
2023-02-11T02:37:04.764Z,100706.06
2023-02-11T02:39:36.337Z,100700.13
2023-02-11T02:42:05.622Z,100697.66
2023-02-11T02:44:33.560Z,100686.19
2023-02-11T02:47:01.961Z,100696.47
2023-02-11T02:49:31.213Z,100701.31
2023-02-11T02:52:27.116Z,100691.81
2023-02-11T02:55:16.230Z,100680.13
2023-02-11T02:58:10.000Z,100667.81
2023-02-11T03:00:44.586Z,100674.56
2023-02-11T03:03:22.881Z,100670.31
2023-02-11T03:05:58.229Z,100665.78
2023-02-11T03:08:31.541Z,100656.28
2023-02-11T03:11:02.013Z,100662.06
2023-02-11T03:13:33.962Z,100660.63
2023-02-11T03:16:05.879Z,100653.72
2023-02-11T03:18:37.280Z,100666.06
2023-02-11T03:21:09.341Z,100655.00
2023-02-11T03:23:41.051Z,100656.63
2023-02-11T03:26:17.198Z,100673.59
2023-02-11T03:28:52.375Z,100671.56
2023-02-11T03:31:28.125Z,100666.81
2023-02-11T03:34:02.267Z,100663.06
2023-02-11T03:36:36.826Z,100657.09
2023-02-11T03:39:06.970Z,100665.06
2023-02-11T03:41:36.550Z,100656.66
2023-02-11T03:44:05.586Z,100664.13
2023-02-11T03:46:37.996Z,100667.34
2023-02-11T03:49:10.007Z,100671.75
2023-02-11T03:51:40.416Z,100661.41
2023-02-11T03:54:12.869Z,100659.47
2023-02-11T03:56:45.966Z,100668.19
2023-02-11T03:59:13.852Z,100677.03
2023-02-11T04:01:41.750Z,100672.53
2023-02-11T04:04:09.467Z,100676.59
2023-02-11T04:06:38.789Z,100682.97
2023-02-11T04:09:06.941Z,100679.94
2023-02-11T04:11:34.650Z,100690.94
2023-02-11T04:14:02.378Z,100677.47
2023-02-11T04:16:30.912Z,100677.66
2023-02-11T04:18:59.085Z,100664.09
2023-02-11T04:21:26.764Z,100669.91
2023-02-11T04:23:55.816Z,100681.00
2023-02-11T04:26:23.595Z,100673.09
2023-02-11T04:28:51.372Z,100674.16
2023-02-11T04:31:19.172Z,100668.47
2023-02-11T04:33:46.986Z,100671.41
2023-02-11T04:36:14.792Z,100672.09
2023-02-11T04:38:42.885Z,100672.75
2023-02-11T04:41:11.917Z,100666.09
2023-02-11T04:43:39.636Z,100675.94
2023-02-11T04:46:07.483Z,100665.53
2023-02-11T04:48:35.633Z,100673.88
2023-02-11T04:51:03.637Z,100674.44
2023-02-11T04:53:31.361Z,100676.34
2023-02-11T04:55:59.259Z,100676.59
2023-02-11T04:58:28.414Z,100671.09
2023-02-11T05:00:56.107Z,100661.41
2023-02-11T05:03:23.923Z,100648.38
2023-02-11T05:05:52.181Z,100632.53
2023-02-11T05:08:20.279Z,100631.31
2023-02-11T05:10:48.403Z,100623.31
2023-02-11T05:13:16.304Z,100613.50
2023-02-11T05:15:45.498Z,100611.50
2023-02-11T05:18:14.805Z,100612.81
2023-02-11T05:20:43.121Z,100620.72
2023-02-11T05:23:11.253Z,100627.44
2023-02-11T05:25:39.020Z,100616.19
2023-02-11T05:28:07.209Z,100610.00
2023-02-11T05:30:34.965Z,100612.81
2023-02-11T05:33:04.177Z,100604.25
2023-02-11T05:35:31.890Z,100592.59
2023-02-11T05:37:59.649Z,100604.41
2023-02-11T05:40:27.506Z,100609.25
2023-02-11T05:42:55.175Z,100616.72
2023-02-11T05:45:22.919Z,100616.56
2023-02-11T05:47:50.600Z,100624.81
2023-02-11T05:50:19.741Z,100635.38
2023-02-11T05:52:47.885Z,100627.72
2023-02-11T05:55:15.848Z,100635.31
2023-02-11T05:57:43.666Z,100633.41
2023-02-11T06:00:12.469Z,100625.13
2023-02-11T06:02:40.672Z,100621.19
2023-02-11T06:05:09.719Z,100632.44
2023-02-11T06:07:38.848Z,100625.25
2023-02-11T06:10:07.760Z,100623.84
2023-02-11T06:12:35.914Z,100617.44
2023-02-11T06:15:03.813Z,100629.72
2023-02-11T06:17:31.662Z,100627.84
2023-02-11T06:19:59.554Z,100617.34
2023-02-11T06:22:27.648Z,100626.09
2023-02-11T06:25:01.683Z,100627.91
2023-02-11T06:27:29.981Z,100612.94
2023-02-11T06:29:57.825Z,100629.69
2023-02-11T06:32:42.924Z,100617.94
2023-02-11T06:35:12.718Z,100621.78
2023-02-11T06:37:40.773Z,100619.50
2023-02-11T06:40:10.486Z,100620.06
2023-02-11T06:42:39.592Z,100623.97
2023-02-11T06:45:09.306Z,100638.47
2023-02-11T06:47:37.124Z,100639.03
2023-02-11T06:50:05.817Z,100639.91
2023-02-11T06:52:34.227Z,100638.91
2023-02-11T06:55:02.579Z,100632.09
2023-02-11T06:57:32.795Z,100633.22
2023-02-11T07:00:00.720Z,100640.09
2023-02-11T07:02:28.499Z,100625.84
2023-02-11T07:04:56.341Z,100624.66
2023-02-11T07:07:24.205Z,100631.41
2023-02-11T07:09:51.988Z,100635.31
2023-02-11T07:12:19.710Z,100637.25
2023-02-11T07:14:48.788Z,100628.63
2023-02-11T07:17:16.631Z,100635.91
2023-02-11T07:19:44.364Z,100641.00
2023-02-11T07:22:12.189Z,100640.38
2023-02-11T07:24:39.937Z,100647.34
2023-02-11T07:27:07.743Z,100649.09
2023-02-11T07:29:35.592Z,100641.41
2023-02-11T07:32:04.792Z,100633.66
2023-02-11T07:34:33.103Z,100641.91
2023-02-11T07:37:00.919Z,100646.06
2023-02-11T07:39:29.498Z,100643.44
2023-02-11T07:41:58.343Z,100639.53
2023-02-11T07:44:26.842Z,100638.66
2023-02-11T07:46:54.602Z,100641.19
2023-02-11T07:49:23.732Z,100635.66
2023-02-11T07:51:52.179Z,100623.47
2023-02-11T07:54:20.051Z,100621.47
2023-02-11T07:56:47.825Z,100612.16
2023-02-11T07:59:15.718Z,100616.38
2023-02-11T08:01:43.499Z,100613.25
2023-02-11T08:04:11.245Z,100610.44
2023-02-11T08:06:43.301Z,100612.75
2023-02-11T08:09:15.739Z,100618.19
2023-02-11T08:11:44.046Z,100628.66
2023-02-11T08:14:12.595Z,100627.44
2023-02-11T08:16:40.884Z,100639.25
2023-02-11T08:19:11.540Z,100631.03
2023-02-11T08:21:41.783Z,100639.72
2023-02-11T08:24:09.966Z,100637.03
2023-02-11T08:26:38.690Z,100637.28
2023-02-11T08:29:09.681Z,100635.75
2023-02-11T08:31:39.660Z,100633.31
2023-02-11T08:34:07.923Z,100630.63
2023-02-11T08:36:37.701Z,100621.25
2023-02-11T08:39:18.574Z,100619.47
2023-02-11T08:41:48.756Z,100617.41
2023-02-11T08:44:17.317Z,100626.44
2023-02-11T08:46:45.973Z,100620.09
2023-02-11T08:49:15.049Z,100620.22
2023-02-11T08:51:42.969Z,100622.75
2023-02-11T08:54:12.907Z,100624.53
2023-02-11T08:56:41.499Z,100626.84
2023-02-11T08:59:11.903Z,100624.84
2023-02-11T09:01:39.736Z,100623.94
2023-02-11T09:04:07.958Z,100628.13
2023-02-11T09:06:35.770Z,100622.16
2023-02-11T09:09:03.755Z,100622.16
2023-02-11T09:11:35.446Z,100619.28
2023-02-11T09:14:04.947Z,100620.13
2023-02-11T09:16:35.085Z,100619.06
2023-02-11T09:19:05.712Z,100608.69
2023-02-11T09:21:33.543Z,100606.06
2023-02-11T09:24:01.351Z,100613.00
2023-02-11T09:26:30.837Z,100609.78
2023-02-11T09:29:00.879Z,100621.03
2023-02-11T09:31:31.030Z,100618.09
2023-02-11T09:34:00.891Z,100615.25
2023-02-11T09:36:30.476Z,100617.66
2023-02-11T09:39:01.199Z,100624.03
2023-02-11T09:41:50.606Z,100622.19
2023-02-11T09:44:24.088Z,100622.78
2023-02-11T09:46:57.128Z,100621.44
2023-02-11T09:49:30.537Z,100632.63
2023-02-11T09:52:04.422Z,100638.06
2023-02-11T09:54:38.307Z,100639.44
2023-02-11T09:57:23.012Z,100638.25
2023-02-11T09:59:57.669Z,100655.19
2023-02-11T10:02:31.761Z,100634.50
2023-02-11T10:05:14.476Z,100649.59
2023-02-11T10:07:49.684Z,100640.50
2023-02-11T10:10:30.619Z,100657.06
2023-02-11T10:13:15.639Z,100649.84
2023-02-11T10:15:53.065Z,100648.56
2023-02-11T10:18:47.498Z,100646.41
2023-02-11T10:21:24.016Z,100644.97
2023-02-11T10:23:55.703Z,100636.44
2023-02-11T10:26:24.592Z,100649.84
2023-02-11T10:28:54.934Z,100644.44
2023-02-11T10:31:28.740Z,100634.81
2023-02-11T10:34:01.098Z,100630.69
2023-02-11T10:36:30.994Z,100632.28
2023-02-11T10:38:59.761Z,100640.50
2023-02-11T10:41:34.567Z,100620.75
2023-02-11T10:44:02.711Z,100623.88
2023-02-11T10:46:34.236Z,100621.94
2023-02-11T10:49:03.471Z,100610.34
2023-02-11T10:51:34.026Z,100614.72
2023-02-11T10:54:14.479Z,100605.59
2023-02-11T10:56:46.590Z,100598.38
2023-02-11T10:59:22.183Z,100591.50
2023-02-11T11:01:59.171Z,100590.44
2023-02-11T11:04:40.745Z,100591.75
2023-02-11T11:07:19.335Z,100597.56
2023-02-11T11:09:55.658Z,100590.97
2023-02-11T11:12:30.115Z,100591.94
2023-02-11T11:15:01.286Z,100597.28
2023-02-11T11:17:30.982Z,100600.13
2023-02-11T11:20:24.744Z,100595.00
2023-02-11T11:22:55.960Z,100593.09
2023-02-11T11:25:26.655Z,100598.06
2023-02-11T11:27:58.194Z,100594.41
2023-02-11T11:30:33.550Z,100590.84
2023-02-11T11:33:03.298Z,100596.78
2023-02-11T11:35:33.970Z,100587.28
2023-02-11T11:38:07.865Z,100590.09
2023-02-11T11:40:36.727Z,100591.41
2023-02-11T11:43:08.047Z,100596.50
2023-02-11T11:45:36.066Z,100584.94
2023-02-11T11:48:14.018Z,100589.97
2023-02-11T11:50:45.855Z,100577.06
2023-02-11T11:53:20.756Z,100576.00
2023-02-11T11:55:54.539Z,100578.03
2023-02-11T11:58:24.900Z,100574.66
2023-02-11T12:01:01.670Z,100581.38
2023-02-11T12:04:08.323Z,100589.88
2023-02-11T12:06:44.437Z,100591.28
2023-02-11T12:09:26.991Z,100587.44
2023-02-11T12:12:26.638Z,100580.53
2023-02-11T12:15:05.974Z,100587.69
2023-02-11T12:17:52.645Z,100578.75
2023-02-11T12:20:31.010Z,100577.59
2023-02-11T12:23:15.485Z,100579.00
2023-02-11T12:25:49.677Z,100592.84
2023-02-11T12:28:29.407Z,100585.00
2023-02-11T12:31:13.113Z,100580.94
2023-02-11T12:34:29.999Z,100588.91
2023-02-11T12:37:08.076Z,100575.41
2023-02-11T12:39:47.860Z,100585.97
2023-02-11T12:42:58.971Z,100596.63
2023-02-11T12:45:43.042Z,100593.50
2023-02-11T12:48:22.881Z,100583.25
2023-02-11T12:50:59.272Z,100568.41
2023-02-11T12:53:50.669Z,100565.22
2023-02-11T12:56:24.259Z,100567.28
2023-02-11T12:58:55.228Z,100569.03
2023-02-11T13:01:27.539Z,100564.00
2023-02-11T13:04:00.632Z,100558.50
2023-02-11T13:06:32.042Z,100545.50
2023-02-11T13:09:04.268Z,100537.88
2023-02-11T13:11:38.712Z,100530.88
2023-02-11T13:14:13.583Z,100533.41
2023-02-11T13:16:43.493Z,100540.22
2023-02-11T13:19:22.177Z,100533.47
2023-02-11T13:22:04.418Z,100540.41
2023-02-11T13:24:44.148Z,100538.34
2023-02-11T13:27:31.263Z,100533.31
2023-02-11T13:30:35.300Z,100523.22
2023-02-11T13:33:17.639Z,100518.38
2023-02-11T13:35:49.527Z,100524.00
2023-02-11T13:38:21.544Z,100530.47
2023-02-11T13:41:04.314Z,100529.97
2023-02-11T13:43:33.965Z,100525.84
2023-02-11T13:46:04.272Z,100527.75
2023-02-11T13:48:36.121Z,100520.81
2023-02-11T13:51:06.912Z,100523.59
2023-02-11T13:53:46.974Z,100526.13
2023-02-11T13:56:29.182Z,100543.50
2023-02-11T13:58:59.605Z,100537.47
2023-02-11T14:01:41.651Z,100539.25
2023-02-11T14:04:42.159Z,100530.22
2023-02-11T14:07:45.882Z,100538.72
2023-02-11T14:10:47.488Z,100538.53
2023-02-11T14:13:24.792Z,100532.19
2023-02-11T14:16:05.805Z,100535.94
2023-02-11T14:18:55.840Z,100540.13
2023-02-11T14:21:32.358Z,100531.13
2023-02-11T14:24:33.238Z,100533.84
2023-02-11T14:27:06.016Z,100524.16
2023-02-11T14:29:42.539Z,100538.09
2023-02-11T14:32:23.235Z,100528.75
2023-02-11T14:34:58.565Z,100537.19
2023-02-11T14:37:50.342Z,100542.69
2023-02-11T14:40:32.595Z,100538.00
2023-02-11T14:43:10.774Z,100543.69
2023-02-11T14:45:41.031Z,100533.75
2023-02-11T14:48:16.118Z,100550.94
2023-02-11T14:50:47.346Z,100555.53
2023-02-11T14:53:17.963Z,100552.06
2023-02-11T14:55:48.094Z,100542.59
2023-02-11T14:58:18.399Z,100552.09
2023-02-11T15:00:54.265Z,100558.97
2023-02-11T15:03:30.849Z,100559.66
2023-02-11T15:06:01.422Z,100560.31
2023-02-11T15:08:31.397Z,100561.47
2023-02-11T15:11:02.204Z,100566.34
2023-02-11T15:13:32.816Z,100566.28
2023-02-11T15:16:06.998Z,100568.31
2023-02-11T15:18:38.787Z,100563.16
2023-02-11T15:21:08.142Z,100564.22
2023-02-11T15:23:38.954Z,100566.72
2023-02-11T15:26:14.021Z,100560.94
2023-02-11T15:28:51.941Z,100575.25
2023-02-11T15:31:23.287Z,100575.66
2023-02-11T15:33:51.582Z,100581.97
2023-02-11T15:36:20.796Z,100581.56
2023-02-11T15:39:19.997Z,100583.94
2023-02-11T15:41:47.724Z,100573.97
2023-02-11T15:44:30.221Z,100589.75
2023-02-11T15:46:59.699Z,100584.03
2023-02-11T15:49:28.062Z,100589.31
2023-02-11T15:51:57.997Z,100584.53
2023-02-11T15:54:29.367Z,100589.22
2023-02-11T15:57:03.518Z,100590.91
2023-02-11T15:59:35.348Z,100594.41
2023-02-11T16:02:10.275Z,100599.09
2023-02-11T16:04:38.672Z,100586.25
2023-02-11T16:07:06.509Z,100595.78
2023-02-11T16:09:36.262Z,100596.78
2023-02-11T16:12:07.673Z,100600.06
2023-02-11T16:14:39.109Z,100596.00
2023-02-11T16:17:11.284Z,100604.69
2023-02-11T16:19:45.150Z,100613.28
2023-02-11T16:22:19.033Z,100618.56
2023-02-11T16:24:49.634Z,100616.63
2023-02-11T16:27:23.022Z,100620.06
2023-02-11T16:29:52.165Z,100617.31
2023-02-11T16:32:23.134Z,100620.38
2023-02-11T16:34:51.492Z,100621.16
2023-02-11T16:37:19.450Z,100618.50
2023-02-11T16:39:47.812Z,100626.41
2023-02-11T16:42:15.758Z,100623.91
2023-02-11T16:44:43.483Z,100624.13
2023-02-11T16:47:29.904Z,100625.88
2023-02-11T16:49:58.422Z,100624.00
2023-02-11T16:52:26.749Z,100623.59
2023-02-11T16:54:54.656Z,100632.44
2023-02-11T16:57:24.786Z,100624.28
2023-02-11T16:59:53.446Z,100628.94
2023-02-11T17:02:26.073Z,100631.28
2023-02-11T17:04:56.782Z,100628.47
2023-02-11T17:07:24.659Z,100631.97
2023-02-11T17:09:52.835Z,100622.47
2023-02-11T17:12:20.568Z,100628.19
2023-02-11T17:14:48.345Z,100627.25
2023-02-11T17:17:17.523Z,100632.47
2023-02-11T17:19:47.752Z,100622.75
2023-02-11T17:22:16.793Z,100626.44
2023-02-11T17:24:44.581Z,100629.84
2023-02-11T17:27:13.222Z,100623.00
2023-02-11T17:29:40.977Z,100628.13
2023-02-11T17:32:08.781Z,100624.38
2023-02-11T17:34:36.520Z,100631.81
2023-02-11T17:37:09.072Z,100637.53
2023-02-11T17:39:38.894Z,100633.19
2023-02-11T17:42:08.490Z,100642.38
2023-02-11T17:44:36.375Z,100635.38
2023-02-11T17:47:04.461Z,100638.88
2023-02-11T17:49:32.205Z,100643.59
2023-02-11T17:51:59.890Z,100648.72
2023-02-11T17:54:27.752Z,100656.63
2023-02-11T17:56:58.447Z,100651.66
2023-02-11T17:59:28.468Z,100653.13
2023-02-11T18:01:56.251Z,100645.22
2023-02-11T18:04:24.045Z,100656.88
2023-02-11T18:06:53.511Z,100668.16
2023-02-11T18:09:21.617Z,100661.22
2023-02-11T18:11:50.634Z,100661.50
2023-02-11T18:14:20.199Z,100672.44
2023-02-11T18:16:51.130Z,100669.31
2023-02-11T18:19:19.425Z,100660.44
2023-02-11T18:21:48.860Z,100667.78
2023-02-11T18:24:17.203Z,100650.41
2023-02-11T18:26:44.969Z,100649.63
2023-02-11T18:29:12.698Z,100654.03
2023-02-11T18:31:41.890Z,100658.22
2023-02-11T18:34:10.790Z,100664.03
2023-02-11T18:36:38.821Z,100679.63
2023-02-11T18:39:07.074Z,100676.59
2023-02-11T18:41:34.901Z,100673.53
2023-02-11T18:44:04.461Z,100674.50
2023-02-11T18:46:35.231Z,100675.94
2023-02-11T18:49:04.326Z,100672.00
2023-02-11T18:51:32.474Z,100680.69
2023-02-11T18:54:01.250Z,100677.66
2023-02-11T18:56:29.146Z,100682.56
2023-02-11T18:58:58.290Z,100675.22
2023-02-11T19:01:27.851Z,100674.03
2023-02-11T19:03:57.198Z,100675.09
2023-02-11T19:06:27.894Z,100667.41
2023-02-11T19:08:59.525Z,100672.84
2023-02-11T19:11:42.860Z,100666.63
2023-02-11T19:14:11.343Z,100663.69
2023-02-11T19:16:39.947Z,100670.63
2023-02-11T19:19:08.667Z,100667.16
2023-02-11T19:21:37.976Z,100682.13
2023-02-11T19:24:08.154Z,100663.03
2023-02-11T19:26:37.000Z,100672.44
2023-02-11T19:29:05.422Z,100676.56
2023-02-11T19:31:33.359Z,100668.72
2023-02-11T19:34:01.519Z,100673.63
2023-02-11T19:36:29.919Z,100669.56
2023-02-11T19:39:00.235Z,100666.88
2023-02-11T19:41:28.275Z,100672.28
2023-02-11T19:43:56.957Z,100675.91
2023-02-11T19:46:26.366Z,100672.84
2023-02-11T19:48:55.441Z,100672.34
2023-02-11T19:51:23.334Z,100676.88
2023-02-11T19:53:51.944Z,100679.13
2023-02-11T19:56:22.341Z,100684.06
2023-02-11T19:58:50.159Z,100688.34
2023-02-11T20:01:19.940Z,100683.84
2023-02-11T20:03:50.400Z,100679.41
2023-02-11T20:06:21.577Z,100684.47
2023-02-11T20:08:49.275Z,100680.63
2023-02-11T20:11:18.376Z,100680.41
2023-02-11T20:13:49.144Z,100676.63
2023-02-11T20:16:22.161Z,100674.69
2023-02-11T20:18:50.990Z,100680.75
2023-02-11T20:21:21.572Z,100678.59
2023-02-11T20:23:50.660Z,100677.19
2023-02-11T20:26:24.699Z,100667.91
2023-02-11T20:28:55.735Z,100673.09
2023-02-11T20:31:24.897Z,100665.06
2023-02-11T20:33:52.956Z,100664.00
2023-02-11T20:36:23.471Z,100671.63
2023-02-11T20:38:52.039Z,100671.06
2023-02-11T20:41:22.289Z,100666.63
2023-02-11T20:43:55.779Z,100677.97
2023-02-11T20:46:28.073Z,100683.25
2023-02-11T20:48:57.580Z,100693.25
2023-02-11T20:51:27.835Z,100690.50
2023-02-11T20:53:55.819Z,100690.66
2023-02-11T20:56:25.799Z,100691.72
2023-02-11T20:58:54.452Z,100692.41
2023-02-11T21:01:26.916Z,100687.84
2023-02-11T21:03:57.043Z,100700.94
2023-02-11T21:06:26.353Z,100695.94
2023-02-11T21:08:54.972Z,100693.75
2023-02-11T21:11:22.889Z,100695.94
2023-02-11T21:13:51.066Z,100694.72
2023-02-11T21:16:22.190Z,100699.13
2023-02-11T21:18:52.200Z,100707.41
2023-02-11T21:21:21.016Z,100685.16
2023-02-11T21:23:49.247Z,100690.91
2023-02-11T21:26:17.985Z,100694.50
2023-02-11T21:28:48.649Z,100691.53
2023-02-11T21:31:21.330Z,100693.44
2023-02-11T21:33:50.969Z,100705.84
2023-02-11T21:36:19.148Z,100713.66
2023-02-11T21:38:46.944Z,100714.00
2023-02-11T21:41:14.744Z,100709.41
2023-02-11T21:43:42.584Z,100713.91
2023-02-11T21:46:13.150Z,100704.50
2023-02-11T21:48:41.183Z,100704.91
2023-02-11T21:51:17.197Z,100707.94
2023-02-11T21:53:45.179Z,100717.34
2023-02-11T21:56:14.735Z,100717.28
2023-02-11T21:58:42.701Z,100721.22
2023-02-11T22:01:15.444Z,100713.06
2023-02-11T22:03:43.268Z,100720.75
2023-02-11T22:06:13.186Z,100714.59
2023-02-11T22:08:42.635Z,100715.66
2023-02-11T22:11:12.204Z,100713.38
2023-02-11T22:13:41.083Z,100717.34
2023-02-11T22:16:10.992Z,100729.22
2023-02-11T22:18:39.759Z,100721.88
2023-02-11T22:21:09.063Z,100728.91
2023-02-11T22:23:37.901Z,100726.81
2023-02-11T22:26:09.528Z,100723.41
2023-02-11T22:28:38.932Z,100727.56
2023-02-11T22:31:07.080Z,100728.50
2023-02-11T22:33:35.190Z,100739.31
2023-02-11T22:36:05.785Z,100732.47
2023-02-11T22:38:34.458Z,100739.06
2023-02-11T22:41:08.627Z,100739.94
2023-02-11T22:43:36.392Z,100735.75
2023-02-11T22:46:05.488Z,100729.41
2023-02-11T22:48:33.384Z,100719.72
2023-02-11T22:51:05.385Z,100713.50
2023-02-11T22:53:33.331Z,100717.84
2023-02-11T22:56:04.445Z,100732.75
2023-02-11T22:58:33.945Z,100727.16
2023-02-11T23:01:01.740Z,100728.09
2023-02-11T23:03:31.787Z,100722.97
2023-02-11T23:06:01.280Z,100723.44
2023-02-11T23:08:33.626Z,100729.50
2023-02-11T23:11:06.996Z,100724.16
2023-02-11T23:13:39.482Z,100717.91
2023-02-11T23:16:09.689Z,100730.19
2023-02-11T23:18:38.754Z,100720.34
2023-02-11T23:21:11.382Z,100724.72
2023-02-11T23:23:40.661Z,100732.13
2023-02-11T23:26:13.517Z,100729.66
2023-02-11T23:28:45.895Z,100729.38
2023-02-11T23:31:16.004Z,100720.56
2023-02-11T23:33:44.411Z,100729.03
2023-02-11T23:36:12.224Z,100725.28
2023-02-11T23:38:40.040Z,100725.34
2023-02-11T23:41:12.370Z,100729.53
2023-02-11T23:43:45.234Z,100724.06
2023-02-11T23:46:14.815Z,100725.94
2023-02-11T23:48:44.521Z,100726.34
2023-02-11T23:51:12.244Z,100731.44
2023-02-11T23:53:43.070Z,100736.28
2023-02-11T23:56:18.946Z,100738.44
2023-02-11T23:58:50.723Z,100739.56
